sensor_id;sensor_type;location;lat;lon;timestamp;pressure;altitude;pressure_sealevel;temperature;humidity
74798;BME280;63326;45.088;7.658;2023-01-28T00:00:37;98692.88;;;2.70;70.22
74798;BME280;63326;45.088;7.658;2023-01-28T00:03:04;98703.66;;;2.78;69.49
74798;BME280;63326;45.088;7.658;2023-01-28T00:05:30;98633.34;;;2.34;70.14
74798;BME280;63326;45.088;7.658;2023-01-28T00:07:57;98685.59;;;2.63;69.45
74798;BME280;63326;45.088;7.658;2023-01-28T00:10:24;98701.84;;;2.79;70.09
74798;BME280;63326;45.088;7.658;2023-01-28T00:12:50;98653.72;;;2.43;69.85
74798;BME280;63326;45.088;7.658;2023-01-28T00:15:17;98735.34;;;2.89;69.24
74798;BME280;63326;45.088;7.658;2023-01-28T00:17:44;98712.69;;;2.76;70.22
74798;BME280;63326;45.088;7.658;2023-01-28T00:20:10;98741.34;;;2.92;70.13
74798;BME280;63326;45.088;7.658;2023-01-28T00:22:37;98704.13;;;2.63;70.05
74798;BME280;63326;45.088;7.658;2023-01-28T00:25:04;98708.72;;;2.60;70.39
74798;BME280;63326;45.088;7.658;2023-01-28T00:27:31;98727.28;;;2.70;70.31
74798;BME280;63326;45.088;7.658;2023-01-28T00:29:58;98673.22;;;2.42;70.38
74798;BME280;63326;45.088;7.658;2023-01-28T00:32:25;98645.44;;;2.27;69.00
74798;BME280;63326;45.088;7.658;2023-01-28T00:34:51;98683.28;;;2.48;69.70
74798;BME280;63326;45.088;7.658;2023-01-28T00:37:18;98646.69;;;2.33;69.45
74798;BME280;63326;45.088;7.658;2023-01-28T00:39:45;98626.03;;;2.17;68.88
74798;BME280;63326;45.088;7.658;2023-01-28T00:42:11;98676.06;;;2.50;69.05
74798;BME280;63326;45.088;7.658;2023-01-28T00:44:38;98741.03;;;2.85;69.27
74798;BME280;63326;45.088;7.658;2023-01-28T00:47:04;98712.56;;;2.77;68.69
74798;BME280;63326;45.088;7.658;2023-01-28T00:49:31;98658.78;;;2.46;68.91
74798;BME280;63326;45.088;7.658;2023-01-28T00:51:58;98664.16;;;2.45;69.02
74798;BME280;63326;45.088;7.658;2023-01-28T00:54:24;98740.38;;;2.93;70.25
74798;BME280;63326;45.088;7.658;2023-01-28T00:56:51;98688.03;;;2.54;69.95
74798;BME280;63326;45.088;7.658;2023-01-28T00:59:19;98638.34;;;2.27;70.18
74798;BME280;63326;45.088;7.658;2023-01-28T01:01:46;98734.22;;;2.92;70.11
74798;BME280;63326;45.088;7.658;2023-01-28T01:04:12;98694.22;;;2.65;70.30
74798;BME280;63326;45.088;7.658;2023-01-28T01:06:39;98685.41;;;2.54;69.89
74798;BME280;63326;45.088;7.658;2023-01-28T01:09:09;98744.13;;;2.90;69.50
74798;BME280;63326;45.088;7.658;2023-01-28T01:11:37;98743.44;;;2.88;69.50
74798;BME280;63326;45.088;7.658;2023-01-28T01:14:04;98747.03;;;2.87;70.26
74798;BME280;63326;45.088;7.658;2023-01-28T01:16:34;98700.34;;;2.55;69.64
74798;BME280;63326;45.088;7.658;2023-01-28T01:19:08;98709.97;;;2.56;70.37
74798;BME280;63326;45.088;7.658;2023-01-28T01:21:35;98694.25;;;2.44;69.90
74798;BME280;63326;45.088;7.658;2023-01-28T01:24:01;98688.00;;;2.45;69.77
74798;BME280;63326;45.088;7.658;2023-01-28T01:26:28;98761.81;;;2.89;69.66
74798;BME280;63326;45.088;7.658;2023-01-28T01:28:56;98761.22;;;2.86;69.72
74798;BME280;63326;45.088;7.658;2023-01-28T01:31:23;98770.59;;;2.90;69.60
74798;BME280;63326;45.088;7.658;2023-01-28T01:33:51;98727.44;;;2.69;69.49
74798;BME280;63326;45.088;7.658;2023-01-28T01:36:18;98686.22;;;2.45;69.77
74798;BME280;63326;45.088;7.658;2023-01-28T01:38:47;98710.94;;;2.65;69.87
74798;BME280;63326;45.088;7.658;2023-01-28T01:41:29;98758.06;;;2.92;70.17
74798;BME280;63326;45.088;7.658;2023-01-28T01:44:03;98762.66;;;2.90;69.63
74798;BME280;63326;45.088;7.658;2023-01-28T01:46:48;98757.38;;;2.90;69.70
74798;BME280;63326;45.088;7.658;2023-01-28T01:49:25;98739.75;;;2.79;69.73
74798;BME280;63326;45.088;7.658;2023-01-28T01:52:13;98754.09;;;2.77;69.62
74798;BME280;63326;45.088;7.658;2023-01-28T01:54:42;98751.81;;;2.72;70.00
74798;BME280;63326;45.088;7.658;2023-01-28T01:57:13;98755.84;;;2.67;70.68
74798;BME280;63326;45.088;7.658;2023-01-28T01:59:42;98741.31;;;2.61;70.28
74798;BME280;63326;45.088;7.658;2023-01-28T02:02:10;98732.59;;;2.49;70.58
74798;BME280;63326;45.088;7.658;2023-01-28T02:04:42;98769.78;;;2.69;70.86
74798;BME280;63326;45.088;7.658;2023-01-28T02:07:15;98760.81;;;2.60;70.53
74798;BME280;63326;45.088;7.658;2023-01-28T02:09:42;98675.81;;;2.12;71.08
74798;BME280;63326;45.088;7.658;2023-01-28T02:12:13;98642.97;;;1.93;71.05
74798;BME280;63326;45.088;7.658;2023-01-28T02:15:18;98758.50;;;2.67;71.17
74798;BME280;63326;45.088;7.658;2023-01-28T02:17:48;98654.44;;;2.03;71.05
74798;BME280;63326;45.088;7.658;2023-01-28T02:20:22;98747.78;;;2.68;70.82
74798;BME280;63326;45.088;7.658;2023-01-28T02:31:25;98758.16;;;2.60;71.81
74798;BME280;63326;45.088;7.658;2023-01-28T02:38:58;98710.81;;;2.04;72.77
74798;BME280;63326;45.088;7.658;2023-01-28T02:41:31;98737.19;;;2.26;73.33
74798;BME280;63326;45.088;7.658;2023-01-28T02:44:01;98766.59;;;2.33;73.31
74798;BME280;63326;45.088;7.658;2023-01-28T02:49:17;98749.38;;;2.18;73.57
74798;BME280;63326;45.088;7.658;2023-01-28T02:52:17;98773.13;;;2.29;73.18
74798;BME280;63326;45.088;7.658;2023-01-28T03:00:43;98703.69;;;1.84;73.17
74798;BME280;63326;45.088;7.658;2023-01-28T03:06:08;98763.38;;;2.29;73.63
74798;BME280;63326;45.088;7.658;2023-01-28T03:08:44;98689.47;;;1.96;73.37
74798;BME280;63326;45.088;7.658;2023-01-28T03:11:30;98778.94;;;2.44;73.79
74798;BME280;63326;45.088;7.658;2023-01-28T03:14:18;98746.47;;;2.21;73.54
74798;BME280;63326;45.088;7.658;2023-01-28T03:17:09;98751.03;;;2.19;74.42
74798;BME280;63326;45.088;7.658;2023-01-28T03:19:56;98767.06;;;2.38;73.85
74798;BME280;63326;45.088;7.658;2023-01-28T03:22:45;98769.84;;;2.37;73.63
74798;BME280;63326;45.088;7.658;2023-01-28T03:25:36;98738.53;;;2.21;73.14
74798;BME280;63326;45.088;7.658;2023-01-28T03:28:24;98745.69;;;2.30;71.59
74798;BME280;63326;45.088;7.658;2023-01-28T03:31:16;98764.16;;;2.41;71.09
74798;BME280;63326;45.088;7.658;2023-01-28T03:34:04;98730.97;;;2.16;70.70
74798;BME280;63326;45.088;7.658;2023-01-28T03:36:50;98795.16;;;2.50;71.54
74798;BME280;63326;45.088;7.658;2023-01-28T03:39:31;98776.09;;;2.36;71.33
74798;BME280;63326;45.088;7.658;2023-01-28T03:42:10;98766.50;;;2.23;71.24
74798;BME280;63326;45.088;7.658;2023-01-28T03:44:58;98739.06;;;2.03;71.73
74798;BME280;63326;45.088;7.658;2023-01-28T03:47:28;98813.84;;;2.38;72.28
74798;BME280;63326;45.088;7.658;2023-01-28T03:49:57;98777.75;;;2.16;72.06
74798;BME280;63326;45.088;7.658;2023-01-28T03:52:29;98817.59;;;2.35;72.37
74798;BME280;63326;45.088;7.658;2023-01-28T03:55:20;98809.19;;;2.30;72.36
74798;BME280;63326;45.088;7.658;2023-01-28T03:57:46;98809.69;;;2.24;72.48
74798;BME280;63326;45.088;7.658;2023-01-28T04:00:14;98800.72;;;2.15;72.70
74798;BME280;63326;45.088;7.658;2023-01-28T04:02:42;98761.50;;;1.88;72.76
74798;BME280;63326;45.088;7.658;2023-01-28T04:05:13;98796.78;;;1.98;72.68
74798;BME280;63326;45.088;7.658;2023-01-28T04:07:46;98806.97;;;2.03;72.55
74798;BME280;63326;45.088;7.658;2023-01-28T04:10:26;98813.75;;;1.96;73.09
74798;BME280;63326;45.088;7.658;2023-01-28T04:13:01;98801.19;;;1.77;73.00
74798;BME280;63326;45.088;7.658;2023-01-28T04:15:32;98739.97;;;1.38;73.39
74798;BME280;63326;45.088;7.658;2023-01-28T04:17:59;98828.44;;;1.89;73.26
74798;BME280;63326;45.088;7.658;2023-01-28T04:20:28;98835.28;;;1.80;73.33
74798;BME280;63326;45.088;7.658;2023-01-28T04:22:58;98825.09;;;1.76;74.28
74798;BME280;63326;45.088;7.658;2023-01-28T04:25:24;98794.72;;;1.48;74.03
74798;BME280;63326;45.088;7.658;2023-01-28T04:27:51;98805.75;;;1.53;74.53
74798;BME280;63326;45.088;7.658;2023-01-28T04:30:24;98812.38;;;1.47;75.15
74798;BME280;63326;45.088;7.658;2023-01-28T04:33:21;98828.94;;;1.49;75.06
74798;BME280;63326;45.088;7.658;2023-01-28T04:36:00;98799.41;;;1.33;75.66
74798;BME280;63326;45.088;7.658;2023-01-28T04:38:51;98832.44;;;1.38;76.06
74798;BME280;63326;45.088;7.658;2023-01-28T04:41:26;98790.63;;;0.99;76.50
74798;BME280;63326;45.088;7.658;2023-01-28T04:43:56;98834.00;;;1.30;76.51
74798;BME280;63326;45.088;7.658;2023-01-28T04:46:37;98794.47;;;0.95;76.88
74798;BME280;63326;45.088;7.658;2023-01-28T04:49:22;98811.63;;;1.00;76.70
74798;BME280;63326;45.088;7.658;2023-01-28T04:51:49;98844.53;;;1.19;77.55
74798;BME280;63326;45.088;7.658;2023-01-28T04:54:41;98827.84;;;1.07;77.18
74798;BME280;63326;45.088;7.658;2023-01-28T04:57:08;98853.44;;;1.18;77.72
74798;BME280;63326;45.088;7.658;2023-01-28T04:59:35;98844.16;;;1.12;78.14
74798;BME280;63326;45.088;7.658;2023-01-28T05:02:01;98845.13;;;1.11;78.06
74798;BME280;63326;45.088;7.658;2023-01-28T05:04:29;98818.84;;;0.98;78.27
74798;BME280;63326;45.088;7.658;2023-01-28T05:06:55;98820.75;;;0.96;78.45
74798;BME280;63326;45.088;7.658;2023-01-28T05:09:27;98832.63;;;1.02;78.48
74798;BME280;63326;45.088;7.658;2023-01-28T05:11:54;98860.25;;;1.09;78.24
74798;BME280;63326;45.088;7.658;2023-01-28T05:14:22;98876.09;;;1.09;78.97
74798;BME280;63326;45.088;7.658;2023-01-28T05:16:56;98872.97;;;1.04;79.06
74798;BME280;63326;45.088;7.658;2023-01-28T05:19:23;98821.06;;;0.69;79.42
74798;BME280;63326;45.088;7.658;2023-01-28T05:21:49;98887.22;;;1.01;78.69
74798;BME280;63326;45.088;7.658;2023-01-28T05:24:26;98828.00;;;0.70;79.29
74798;BME280;63326;45.088;7.658;2023-01-28T05:26:53;98884.97;;;0.97;79.60
74798;BME280;63326;45.088;7.658;2023-01-28T05:29:19;98885.91;;;0.96;79.06
74798;BME280;63326;45.088;7.658;2023-01-28T05:31:47;98886.41;;;1.01;79.82
74798;BME280;63326;45.088;7.658;2023-01-28T05:34:14;98841.44;;;0.67;78.89
74798;BME280;63326;45.088;7.658;2023-01-28T05:36:42;98889.72;;;0.92;78.77
74798;BME280;63326;45.088;7.658;2023-01-28T05:39:34;98813.53;;;0.41;79.68
74798;BME280;63326;45.088;7.658;2023-01-28T05:42:02;98866.63;;;0.71;79.69
74798;BME280;63326;45.088;7.658;2023-01-28T05:44:31;98890.81;;;0.89;79.86
74798;BME280;63326;45.088;7.658;2023-01-28T05:47:14;98848.88;;;0.62;79.68
74798;BME280;63326;45.088;7.658;2023-01-28T05:49:46;98857.53;;;0.75;80.12
74798;BME280;63326;45.088;7.658;2023-01-28T05:52:25;98847.31;;;0.71;79.52
74798;BME280;63326;45.088;7.658;2023-01-28T05:54:52;98889.66;;;1.04;79.47
74798;BME280;63326;45.088;7.658;2023-01-28T05:57:18;98858.78;;;0.82;79.44
74798;BME280;63326;45.088;7.658;2023-01-28T05:59:45;98890.34;;;0.95;79.50
74798;BME280;63326;45.088;7.658;2023-01-28T06:02:12;98860.44;;;0.72;79.43
74798;BME280;63326;45.088;7.658;2023-01-28T06:04:40;98920.97;;;1.09;79.54
74798;BME280;63326;45.088;7.658;2023-01-28T06:07:07;98855.34;;;0.69;79.67
74798;BME280;63326;45.088;7.658;2023-01-28T06:09:36;98872.19;;;0.79;78.92
74798;BME280;63326;45.088;7.658;2023-01-28T06:12:03;98872.31;;;0.78;78.89
74798;BME280;63326;45.088;7.658;2023-01-28T06:14:37;98909.69;;;0.96;79.38
74798;BME280;63326;45.088;7.658;2023-01-28T06:17:09;98883.94;;;0.75;79.19
74798;BME280;63326;45.088;7.658;2023-01-28T06:19:58;98927.78;;;1.00;79.39
74798;BME280;63326;45.088;7.658;2023-01-28T06:22:26;98873.47;;;0.63;79.59
74798;BME280;63326;45.088;7.658;2023-01-28T06:24:52;98899.53;;;0.78;79.04
74798;BME280;63326;45.088;7.658;2023-01-28T06:27:19;98932.91;;;0.91;79.29
74798;BME280;63326;45.088;7.658;2023-01-28T06:29:46;98930.41;;;0.89;79.80
74798;BME280;63326;45.088;7.658;2023-01-28T06:32:12;98964.06;;;1.09;79.46
74798;BME280;63326;45.088;7.658;2023-01-28T06:34:39;98895.78;;;0.70;79.24
74798;BME280;63326;45.088;7.658;2023-01-28T06:37:06;98959.34;;;1.02;79.54
74798;BME280;63326;45.088;7.658;2023-01-28T06:39:33;98960.94;;;1.04;78.89
74798;BME280;63326;45.088;7.658;2023-01-28T06:41:59;98940.13;;;0.89;79.37
74798;BME280;63326;45.088;7.658;2023-01-28T06:44:26;98953.09;;;0.92;79.56
74798;BME280;63326;45.088;7.658;2023-01-28T06:46:52;98979.03;;;0.98;79.47
74798;BME280;63326;45.088;7.658;2023-01-28T06:49:19;98974.59;;;0.98;79.55
74798;BME280;63326;45.088;7.658;2023-01-28T06:51:47;98958.94;;;0.84;80.31
74798;BME280;63326;45.088;7.658;2023-01-28T06:54:14;98971.34;;;0.95;80.37
74798;BME280;63326;45.088;7.658;2023-01-28T06:56:41;98988.78;;;1.08;80.24
74798;BME280;63326;45.088;7.658;2023-01-28T06:59:08;98988.56;;;1.11;79.53
74798;BME280;63326;45.088;7.658;2023-01-28T07:01:34;98965.44;;;0.91;79.57
74798;BME280;63326;45.088;7.658;2023-01-28T07:04:01;98963.72;;;0.79;80.13
74798;BME280;63326;45.088;7.658;2023-01-28T07:06:28;98986.91;;;0.86;80.00
74798;BME280;63326;45.088;7.658;2023-01-28T07:08:54;98991.91;;;1.02;79.98
74798;BME280;63326;45.088;7.658;2023-01-28T07:11:21;98979.28;;;0.95;80.12
74798;BME280;63326;45.088;7.658;2023-01-28T07:13:47;98992.63;;;1.04;79.70
74798;BME280;63326;45.088;7.658;2023-01-28T07:16:14;98965.06;;;0.84;79.92
74798;BME280;63326;45.088;7.658;2023-01-28T07:18:41;98988.06;;;1.06;79.90
74798;BME280;63326;45.088;7.658;2023-01-28T07:21:07;98995.66;;;1.11;79.94
74798;BME280;63326;45.088;7.658;2023-01-28T07:23:34;98995.31;;;1.15;79.49
74798;BME280;63326;45.088;7.658;2023-01-28T07:26:03;98987.84;;;1.09;80.09
74798;BME280;63326;45.088;7.658;2023-01-28T07:28:30;99000.94;;;1.11;79.38
74798;BME280;63326;45.088;7.658;2023-01-28T07:30:57;98996.41;;;1.13;79.75
74798;BME280;63326;45.088;7.658;2023-01-28T07:33:23;98966.41;;;0.90;79.33
74798;BME280;63326;45.088;7.658;2023-01-28T07:35:50;98990.41;;;1.22;78.87
74798;BME280;63326;45.088;7.658;2023-01-28T07:38:16;98982.41;;;1.35;78.73
74798;BME280;63326;45.088;7.658;2023-01-28T07:40:43;98987.38;;;1.62;77.87
74798;BME280;63326;45.088;7.658;2023-01-28T07:43:11;98986.47;;;1.85;76.49
74798;BME280;63326;45.088;7.658;2023-01-28T07:45:39;98961.47;;;1.78;75.66
74798;BME280;63326;45.088;7.658;2023-01-28T07:48:08;98970.22;;;2.01;75.88
74798;BME280;63326;45.088;7.658;2023-01-28T07:50:36;98992.34;;;2.11;74.86
74798;BME280;63326;45.088;7.658;2023-01-28T07:53:05;99001.34;;;2.31;75.26
74798;BME280;63326;45.088;7.658;2023-01-28T07:55:33;99000.22;;;2.67;74.25
74798;BME280;63326;45.088;7.658;2023-01-28T07:58:02;98999.78;;;2.94;73.62
74798;BME280;63326;45.088;7.658;2023-01-28T08:00:31;99013.09;;;3.36;72.66
74798;BME280;63326;45.088;7.658;2023-01-28T08:03:00;99010.97;;;3.71;71.35
74798;BME280;63326;45.088;7.658;2023-01-28T08:05:48;99014.56;;;4.12;69.18
74798;BME280;63326;45.088;7.658;2023-01-28T08:08:15;99020.66;;;4.33;62.78
74798;BME280;63326;45.088;7.658;2023-01-28T08:10:42;99028.28;;;4.67;62.99
74798;BME280;63326;45.088;7.658;2023-01-28T08:13:10;99005.13;;;4.88;63.01
74798;BME280;63326;45.088;7.658;2023-01-28T08:15:37;99017.91;;;5.24;59.67
74798;BME280;63326;45.088;7.658;2023-01-28T08:18:05;99014.84;;;4.59;55.30
74798;BME280;63326;45.088;7.658;2023-01-28T08:20:33;99004.66;;;4.64;55.72
74798;BME280;63326;45.088;7.658;2023-01-28T08:23:26;99027.53;;;4.46;54.50
74798;BME280;63326;45.088;7.658;2023-01-28T08:25:53;99034.78;;;4.44;54.85
74798;BME280;63326;45.088;7.658;2023-01-28T08:28:20;99033.19;;;4.62;55.00
74798;BME280;63326;45.088;7.658;2023-01-28T08:30:47;99007.56;;;4.42;53.24
74798;BME280;63326;45.088;7.658;2023-01-28T08:33:15;99016.09;;;5.24;52.88
74798;BME280;63326;45.088;7.658;2023-01-28T08:35:42;99041.69;;;5.44;51.33
74798;BME280;63326;45.088;7.658;2023-01-28T08:38:11;99040.41;;;5.58;51.71
74798;BME280;63326;45.088;7.658;2023-01-28T08:40:39;99033.28;;;5.39;51.58
74798;BME280;63326;45.088;7.658;2023-01-28T08:43:06;99031.75;;;5.17;51.65
74798;BME280;63326;45.088;7.658;2023-01-28T08:45:32;99048.84;;;5.44;51.02
74798;BME280;63326;45.088;7.658;2023-01-28T08:48:07;99027.97;;;5.30;51.28
74798;BME280;63326;45.088;7.658;2023-01-28T08:50:37;99053.00;;;5.27;52.00
74798;BME280;63326;45.088;7.658;2023-01-28T08:53:04;99055.13;;;5.33;51.45
74798;BME280;63326;45.088;7.658;2023-01-28T08:55:32;99046.03;;;5.65;51.00
74798;BME280;63326;45.088;7.658;2023-01-28T08:58:04;99047.22;;;6.19;50.30
74798;BME280;63326;45.088;7.658;2023-01-28T09:00:32;99056.00;;;6.29;49.81
74798;BME280;63326;45.088;7.658;2023-01-28T09:02:58;99053.84;;;6.79;48.08
74798;BME280;63326;45.088;7.658;2023-01-28T09:05:25;99056.63;;;7.23;46.97
74798;BME280;63326;45.088;7.658;2023-01-28T09:07:52;99047.06;;;7.48;45.32
74798;BME280;63326;45.088;7.658;2023-01-28T09:10:18;99065.34;;;8.04;45.15
74798;BME280;63326;45.088;7.658;2023-01-28T09:12:48;99055.50;;;8.57;44.73
74798;BME280;63326;45.088;7.658;2023-01-28T09:15:14;99037.56;;;8.75;43.96
74798;BME280;63326;45.088;7.658;2023-01-28T09:17:41;99056.75;;;9.29;42.79
74798;BME280;63326;45.088;7.658;2023-01-28T09:20:08;99064.53;;;9.65;40.39
74798;BME280;63326;45.088;7.658;2023-01-28T09:22:35;99059.50;;;9.94;39.76
74798;BME280;63326;45.088;7.658;2023-01-28T09:25:01;99067.22;;;10.22;39.32
74798;BME280;63326;45.088;7.658;2023-01-28T09:27:28;99054.66;;;10.06;38.63
74798;BME280;63326;45.088;7.658;2023-01-28T09:29:55;99070.34;;;10.42;39.14
74798;BME280;63326;45.088;7.658;2023-01-28T09:32:21;99052.59;;;10.96;37.93
74798;BME280;63326;45.088;7.658;2023-01-28T09:34:50;99075.16;;;11.10;36.60
74798;BME280;63326;45.088;7.658;2023-01-28T09:37:16;99065.00;;;11.51;36.12
74798;BME280;63326;45.088;7.658;2023-01-28T09:39:43;99062.09;;;11.61;35.31
74798;BME280;63326;45.088;7.658;2023-01-28T09:45:11;99076.16;;;11.40;35.65
74798;BME280;63326;45.088;7.658;2023-01-28T09:47:51;99084.00;;;10.79;37.23
74798;BME280;63326;45.088;7.658;2023-01-28T09:50:27;99086.13;;;10.45;38.15
74798;BME280;63326;45.088;7.658;2023-01-28T09:53:01;99083.59;;;10.10;38.37
74798;BME280;63326;45.088;7.658;2023-01-28T09:55:42;99060.16;;;9.88;38.32
74798;BME280;63326;45.088;7.658;2023-01-28T09:58:10;99088.59;;;10.54;37.85
74798;BME280;63326;45.088;7.658;2023-01-28T10:00:44;99086.66;;;11.27;36.97
74798;BME280;63326;45.088;7.658;2023-01-28T10:06:22;99077.09;;;11.78;36.27
74798;BME280;63326;45.088;7.658;2023-01-28T10:11:57;99089.81;;;10.91;37.66
74798;BME280;63326;45.088;7.658;2023-01-28T10:19:41;99069.06;;;10.05;36.50
74798;BME280;63326;45.088;7.658;2023-01-28T10:22:22;99091.06;;;11.11;35.50
74798;BME280;63326;45.088;7.658;2023-01-28T10:24:54;99079.00;;;11.92;33.41
74798;BME280;63326;45.088;7.658;2023-01-28T10:27:29;99077.56;;;12.57;32.18
74798;BME280;63326;45.088;7.658;2023-01-28T10:30:16;99056.19;;;13.14;32.19
74798;BME280;63326;45.088;7.658;2023-01-28T10:32:50;99083.03;;;12.49;30.51
74798;BME280;63326;45.088;7.658;2023-01-28T10:35:17;99072.97;;;11.90;31.40
74798;BME280;63326;45.088;7.658;2023-01-28T10:37:44;99064.75;;;12.29;30.85
74798;BME280;63326;45.088;7.658;2023-01-28T10:40:17;99074.03;;;12.42;30.44
74798;BME280;63326;45.088;7.658;2023-01-28T10:42:44;99077.63;;;12.34;30.90
74798;BME280;63326;45.088;7.658;2023-01-28T10:45:18;99067.91;;;12.48;29.83
74798;BME280;63326;45.088;7.658;2023-01-28T10:47:53;99069.59;;;12.78;30.49
74798;BME280;63326;45.088;7.658;2023-01-28T10:50:23;99047.13;;;11.89;30.66
74798;BME280;63326;45.088;7.658;2023-01-28T10:53:02;99064.69;;;12.67;30.65
74798;BME280;63326;45.088;7.658;2023-01-28T10:55:34;99062.03;;;13.33;29.35
74798;BME280;63326;45.088;7.658;2023-01-28T10:58:20;99025.69;;;12.19;28.59
74798;BME280;63326;45.088;7.658;2023-01-28T11:00:56;99019.19;;;12.87;26.87
74798;BME280;63326;45.088;7.658;2023-01-28T11:03:24;99052.13;;;13.04;28.41
74798;BME280;63326;45.088;7.658;2023-01-28T11:05:55;99049.25;;;14.05;26.41
74798;BME280;63326;45.088;7.658;2023-01-28T11:08:24;99044.94;;;14.39;26.73
74798;BME280;63326;45.088;7.658;2023-01-28T11:10:52;99045.56;;;12.47;29.11
74798;BME280;63326;45.088;7.658;2023-01-28T11:13:27;99041.38;;;14.32;27.59
74798;BME280;63326;45.088;7.658;2023-01-28T11:16:15;99031.31;;;13.48;25.83
74798;BME280;63326;45.088;7.658;2023-01-28T11:18:53;99003.38;;;13.49;26.47
74798;BME280;63326;45.088;7.658;2023-01-28T11:21:23;99039.53;;;12.89;27.36
74798;BME280;63326;45.088;7.658;2023-01-28T11:24:14;99035.09;;;12.37;28.51
74798;BME280;63326;45.088;7.658;2023-01-28T11:26:43;99031.91;;;12.19;29.16
74798;BME280;63326;45.088;7.658;2023-01-28T11:29:30;99004.66;;;12.07;29.62
74798;BME280;63326;45.088;7.658;2023-01-28T11:31:59;99026.38;;;12.50;28.90
74798;BME280;63326;45.088;7.658;2023-01-28T11:34:28;99020.97;;;13.95;27.96
74798;BME280;63326;45.088;7.658;2023-01-28T11:37:11;99025.53;;;13.30;27.51
74798;BME280;63326;45.088;7.658;2023-01-28T11:39:39;99013.66;;;14.79;25.92
74798;BME280;63326;45.088;7.658;2023-01-28T11:42:18;99016.31;;;14.66;25.07
74798;BME280;63326;45.088;7.658;2023-01-28T11:44:47;99007.06;;;13.27;27.40
74798;BME280;63326;45.088;7.658;2023-01-28T11:47:39;99007.66;;;15.51;25.60
74798;BME280;63326;45.088;7.658;2023-01-28T12:01:32;98995.69;;;14.52;24.14
74798;BME280;63326;45.088;7.658;2023-01-28T12:04:17;98983.53;;;15.50;23.29
74798;BME280;63326;45.088;7.658;2023-01-28T12:26:16;98966.25;;;15.31;24.13
74798;BME280;63326;45.088;7.658;2023-01-28T12:36:11;98951.59;;;17.22;22.12
74798;BME280;63326;45.088;7.658;2023-01-28T12:41:24;98942.13;;;16.42;22.18
74798;BME280;63326;45.088;7.658;2023-01-28T12:44:01;98948.00;;;16.97;22.56
74798;BME280;63326;45.088;7.658;2023-01-28T12:46:44;98932.47;;;17.42;22.76
74798;BME280;63326;45.088;7.658;2023-01-28T12:49:21;98941.22;;;17.13;22.64
74798;BME280;63326;45.088;7.658;2023-01-28T12:54:35;98924.59;;;18.34;20.48
74798;BME280;63326;45.088;7.658;2023-01-28T12:57:04;98927.88;;;17.18;21.71
74798;BME280;63326;45.088;7.658;2023-01-28T12:59:41;98923.44;;;18.23;20.84
74798;BME280;63326;45.088;7.658;2023-01-28T13:07:33;98930.47;;;17.31;22.81
74798;BME280;63326;45.088;7.658;2023-01-28T13:10:26;98899.56;;;17.64;22.99
74798;BME280;63326;45.088;7.658;2023-01-28T13:12:55;98912.00;;;17.21;23.64
74798;BME280;63326;45.088;7.658;2023-01-28T13:15:23;98902.94;;;16.58;24.74
74798;BME280;63326;45.088;7.658;2023-01-28T13:18:01;98921.00;;;16.77;24.02
74798;BME280;63326;45.088;7.658;2023-01-28T13:20:46;98922.78;;;17.28;23.32
74798;BME280;63326;45.088;7.658;2023-01-28T13:28:36;98909.16;;;15.80;25.98
74798;BME280;63326;45.088;7.658;2023-01-28T13:31:09;98920.72;;;16.85;25.69
74798;BME280;63326;45.088;7.658;2023-01-28T13:33:41;98919.47;;;16.23;26.94
74798;BME280;63326;45.088;7.658;2023-01-28T13:38:44;98917.69;;;16.68;26.17
74798;BME280;63326;45.088;7.658;2023-01-28T13:41:11;98923.63;;;16.90;25.77
74798;BME280;63326;45.088;7.658;2023-01-28T13:43:40;98924.31;;;16.01;26.74
74798;BME280;63326;45.088;7.658;2023-01-28T13:48:48;98927.00;;;16.15;26.48
74798;BME280;63326;45.088;7.658;2023-01-28T13:51:20;98932.63;;;15.93;26.37
74798;BME280;63326;45.088;7.658;2023-01-28T13:53:56;98930.25;;;16.94;25.14
74798;BME280;63326;45.088;7.658;2023-01-28T13:56:27;98943.16;;;16.34;24.77
74798;BME280;63326;45.088;7.658;2023-01-28T14:04:50;98946.72;;;17.69;22.68
74798;BME280;63326;45.088;7.658;2023-01-28T14:18:51;98943.66;;;15.92;25.08
74798;BME280;63326;45.088;7.658;2023-01-28T14:21:18;98930.50;;;16.22;24.69
74798;BME280;63326;45.088;7.658;2023-01-28T14:23:51;98917.88;;;14.21;26.38
74798;BME280;63326;45.088;7.658;2023-01-28T14:29:17;98943.50;;;14.86;25.88
74798;BME280;63326;45.088;7.658;2023-01-28T14:31:47;98952.19;;;16.02;24.30
74798;BME280;63326;45.088;7.658;2023-01-28T14:34:33;98951.19;;;15.63;23.48
74798;BME280;63326;45.088;7.658;2023-01-28T14:37:05;98940.78;;;14.38;24.61
74798;BME280;63326;45.088;7.658;2023-01-28T14:39:45;98948.19;;;14.23;25.18
74798;BME280;63326;45.088;7.658;2023-01-28T14:42:25;98938.03;;;15.34;24.13
74798;BME280;63326;45.088;7.658;2023-01-28T14:47:41;98944.31;;;15.80;22.83
74798;BME280;63326;45.088;7.658;2023-01-28T14:50:29;98909.09;;;15.21;22.07
74798;BME280;63326;45.088;7.658;2023-01-28T15:01:43;98895.13;;;16.23;20.94
74798;BME280;63326;45.088;7.658;2023-01-28T15:04:33;98954.06;;;14.81;22.59
74798;BME280;63326;45.088;7.658;2023-01-28T15:07:14;98930.78;;;15.54;21.71
74798;BME280;63326;45.088;7.658;2023-01-28T15:09:41;98957.13;;;14.64;23.28
74798;BME280;63326;45.088;7.658;2023-01-28T15:12:08;98957.28;;;15.04;23.68
74798;BME280;63326;45.088;7.658;2023-01-28T15:14:35;98953.09;;;15.02;23.33
74798;BME280;63326;45.088;7.658;2023-01-28T15:17:02;98931.44;;;14.75;23.49
74798;BME280;63326;45.088;7.658;2023-01-28T15:19:31;98928.00;;;15.08;23.12
74798;BME280;63326;45.088;7.658;2023-01-28T15:22:01;98956.28;;;15.18;23.20
74798;BME280;63326;45.088;7.658;2023-01-28T15:24:30;98959.59;;;15.14;22.99
74798;BME280;63326;45.088;7.658;2023-01-28T15:26:57;98954.44;;;14.64;24.78
74798;BME280;63326;45.088;7.658;2023-01-28T15:29:35;98936.00;;;14.75;23.43
74798;BME280;63326;45.088;7.658;2023-01-28T15:32:03;98960.97;;;14.14;24.74
74798;BME280;63326;45.088;7.658;2023-01-28T15:34:30;98968.47;;;13.63;25.82
74798;BME280;63326;45.088;7.658;2023-01-28T15:37:00;98933.09;;;13.23;25.96
74798;BME280;63326;45.088;7.658;2023-01-28T15:39:28;98975.69;;;12.83;26.19
74798;BME280;63326;45.088;7.658;2023-01-28T15:42:01;98976.34;;;13.07;25.71